sensor_id;sensor_type;location;lat;lon;timestamp;temperature;humidity
11043;DHT22;5574;48.786;10.120;2023-02-26T00:00:10;1.20;99.90
11043;DHT22;5574;48.786;10.120;2023-02-26T00:02:39;1.20;99.90
11043;DHT22;5574;48.786;10.120;2023-02-26T00:05:07;1.20;99.90
11043;DHT22;5574;48.786;10.120;2023-02-26T00:07:34;1.20;99.90
11043;DHT22;5574;48.786;10.120;2023-02-26T00:10:02;1.20;99.90
11043;DHT22;5574;48.786;10.120;2023-02-26T00:12:30;1.20;99.90
11043;DHT22;5574;48.786;10.120;2023-02-26T00:14:57;1.20;99.90
11043;DHT22;5574;48.786;10.120;2023-02-26T00:17:41;1.20;99.90
11043;DHT22;5574;48.786;10.120;2023-02-26T00:20:11;1.30;99.90
11043;DHT22;5574;48.786;10.120;2023-02-26T00:22:38;1.30;99.90
11043;DHT22;5574;48.786;10.120;2023-02-26T00:25:08;1.20;99.90
11043;DHT22;5574;48.786;10.120;2023-02-26T00:27:35;1.30;99.90
11043;DHT22;5574;48.786;10.120;2023-02-26T00:30:03;1.20;99.90
11043;DHT22;5574;48.786;10.120;2023-02-26T00:32:30;1.20;99.90
11043;DHT22;5574;48.786;10.120;2023-02-26T00:34:57;1.20;99.90
11043;DHT22;5574;48.786;10.120;2023-02-26T00:37:36;1.10;99.90
11043;DHT22;5574;48.786;10.120;2023-02-26T00:40:20;1.20;99.90
11043;DHT22;5574;48.786;10.120;2023-02-26T00:42:48;1.10;99.90
11043;DHT22;5574;48.786;10.120;2023-02-26T00:45:16;1.00;99.90
11043;DHT22;5574;48.786;10.120;2023-02-26T00:47:48;1.10;99.90
11043;DHT22;5574;48.786;10.120;2023-02-26T00:50:17;1.10;99.90
11043;DHT22;5574;48.786;10.120;2023-02-26T00:52:51;1.10;99.90
11043;DHT22;5574;48.786;10.120;2023-02-26T00:55:20;1.10;99.90
11043;DHT22;5574;48.786;10.120;2023-02-26T00:57:46;1.20;99.90
11043;DHT22;5574;48.786;10.120;2023-02-26T01:00:14;1.30;99.90
11043;DHT22;5574;48.786;10.120;2023-02-26T01:02:42;1.30;99.90
11043;DHT22;5574;48.786;10.120;2023-02-26T01:05:09;1.30;99.90
11043;DHT22;5574;48.786;10.120;2023-02-26T01:07:41;1.20;99.90
11043;DHT22;5574;48.786;10.120;2023-02-26T01:10:11;1.20;99.90
11043;DHT22;5574;48.786;10.120;2023-02-26T01:12:40;1.10;99.90
11043;DHT22;5574;48.786;10.120;2023-02-26T01:15:08;1.10;99.90
11043;DHT22;5574;48.786;10.120;2023-02-26T01:17:40;1.10;99.90
11043;DHT22;5574;48.786;10.120;2023-02-26T01:20:13;1.00;99.90
11043;DHT22;5574;48.786;10.120;2023-02-26T01:22:45;1.10;99.90
11043;DHT22;5574;48.786;10.120;2023-02-26T01:25:18;1.10;99.90
11043;DHT22;5574;48.786;10.120;2023-02-26T01:27:48;1.00;99.90
11043;DHT22;5574;48.786;10.120;2023-02-26T01:30:16;0.90;99.90
11043;DHT22;5574;48.786;10.120;2023-02-26T01:32:47;0.90;99.90
11043;DHT22;5574;48.786;10.120;2023-02-26T01:35:23;0.90;99.90
11043;DHT22;5574;48.786;10.120;2023-02-26T01:38:00;1.00;99.90
11043;DHT22;5574;48.786;10.120;2023-02-26T01:40:37;1.00;99.90
11043;DHT22;5574;48.786;10.120;2023-02-26T01:43:15;0.90;99.90
11043;DHT22;5574;48.786;10.120;2023-02-26T01:45:54;1.00;99.90
11043;DHT22;5574;48.786;10.120;2023-02-26T01:48:30;0.90;99.90
11043;DHT22;5574;48.786;10.120;2023-02-26T01:50:59;0.80;99.90
11043;DHT22;5574;48.786;10.120;2023-02-26T01:53:26;0.80;99.90
11043;DHT22;5574;48.786;10.120;2023-02-26T01:55:55;0.80;99.90
11043;DHT22;5574;48.786;10.120;2023-02-26T01:58:26;0.70;99.90
11043;DHT22;5574;48.786;10.120;2023-02-26T02:00:53;0.70;99.90
11043;DHT22;5574;48.786;10.120;2023-02-26T02:03:20;0.70;99.90
11043;DHT22;5574;48.786;10.120;2023-02-26T02:05:52;0.60;99.90
11043;DHT22;5574;48.786;10.120;2023-02-26T02:08:21;0.70;99.90
11043;DHT22;5574;48.786;10.120;2023-02-26T02:10:49;0.70;99.90
11043;DHT22;5574;48.786;10.120;2023-02-26T02:13:28;0.70;99.90
11043;DHT22;5574;48.786;10.120;2023-02-26T02:16:06;0.70;99.90
11043;DHT22;5574;48.786;10.120;2023-02-26T02:18:42;0.70;99.90
11043;DHT22;5574;48.786;10.120;2023-02-26T02:24:13;0.70;99.90
11043;DHT22;5574;48.786;10.120;2023-02-26T02:26:57;0.80;99.90
11043;DHT22;5574;48.786;10.120;2023-02-26T02:29:38;0.70;99.90
11043;DHT22;5574;48.786;10.120;2023-02-26T02:32:14;0.60;99.90
11043;DHT22;5574;48.786;10.120;2023-02-26T02:34:46;0.60;99.90
11043;DHT22;5574;48.786;10.120;2023-02-26T02:37:18;0.50;99.90
11043;DHT22;5574;48.786;10.120;2023-02-26T02:39:49;0.50;99.90
11043;DHT22;5574;48.786;10.120;2023-02-26T02:42:23;0.60;99.90
11043;DHT22;5574;48.786;10.120;2023-02-26T02:44:55;0.60;99.90
11043;DHT22;5574;48.786;10.120;2023-02-26T02:47:24;0.70;99.90
11043;DHT22;5574;48.786;10.120;2023-02-26T02:49:58;0.70;99.90
11043;DHT22;5574;48.786;10.120;2023-02-26T02:52:29;0.70;99.90
11043;DHT22;5574;48.786;10.120;2023-02-26T02:55:01;0.70;99.90
11043;DHT22;5574;48.786;10.120;2023-02-26T02:57:32;0.70;99.90
11043;DHT22;5574;48.786;10.120;2023-02-26T03:00:03;0.70;99.90
11043;DHT22;5574;48.786;10.120;2023-02-26T03:02:38;0.70;99.90
11043;DHT22;5574;48.786;10.120;2023-02-26T03:05:07;0.70;99.90
11043;DHT22;5574;48.786;10.120;2023-02-26T03:07:39;0.70;99.90
11043;DHT22;5574;48.786;10.120;2023-02-26T03:10:08;0.60;99.90
11043;DHT22;5574;48.786;10.120;2023-02-26T03:12:35;0.60;99.90
11043;DHT22;5574;48.786;10.120;2023-02-26T03:15:02;0.50;99.90
11043;DHT22;5574;48.786;10.120;2023-02-26T03:17:32;0.50;99.90
11043;DHT22;5574;48.786;10.120;2023-02-26T03:20:11;0.40;99.90
11043;DHT22;5574;48.786;10.120;2023-02-26T03:22:46;0.40;99.90
11043;DHT22;5574;48.786;10.120;2023-02-26T03:25:19;0.40;99.90
11043;DHT22;5574;48.786;10.120;2023-02-26T03:27:54;0.30;99.90
11043;DHT22;5574;48.786;10.120;2023-02-26T03:30:28;0.20;99.90
11043;DHT22;5574;48.786;10.120;2023-02-26T03:33:02;0.00;99.90
11043;DHT22;5574;48.786;10.120;2023-02-26T03:35:34;0.00;99.90
11043;DHT22;5574;48.786;10.120;2023-02-26T03:38:08;0.00;99.90
11043;DHT22;5574;48.786;10.120;2023-02-26T03:40:40;0.00;99.90
11043;DHT22;5574;48.786;10.120;2023-02-26T03:43:10;0.00;99.90
11043;DHT22;5574;48.786;10.120;2023-02-26T03:45:40;-0.10;99.90
11043;DHT22;5574;48.786;10.120;2023-02-26T03:48:10;-0.10;99.90
11043;DHT22;5574;48.786;10.120;2023-02-26T03:50:44;-0.20;99.90
11043;DHT22;5574;48.786;10.120;2023-02-26T03:53:15;-0.10;99.90
11043;DHT22;5574;48.786;10.120;2023-02-26T03:55:46;-0.10;99.90
11043;DHT22;5574;48.786;10.120;2023-02-26T03:58:14;-0.10;99.90
11043;DHT22;5574;48.786;10.120;2023-02-26T04:00:44;-0.20;99.90
11043;DHT22;5574;48.786;10.120;2023-02-26T04:03:18;-0.20;99.90
11043;DHT22;5574;48.786;10.120;2023-02-26T04:05:50;-0.20;99.90
11043;DHT22;5574;48.786;10.120;2023-02-26T04:08:19;-0.20;99.90
11043;DHT22;5574;48.786;10.120;2023-02-26T04:10:51;-0.10;99.90
11043;DHT22;5574;48.786;10.120;2023-02-26T04:13:19;-0.10;99.90
11043;DHT22;5574;48.786;10.120;2023-02-26T04:15:46;-0.20;99.90
11043;DHT22;5574;48.786;10.120;2023-02-26T04:18:13;-0.10;99.90
11043;DHT22;5574;48.786;10.120;2023-02-26T04:20:40;-0.20;99.90
11043;DHT22;5574;48.786;10.120;2023-02-26T04:23:08;-0.20;99.90
11043;DHT22;5574;48.786;10.120;2023-02-26T04:25:34;-0.20;99.90
11043;DHT22;5574;48.786;10.120;2023-02-26T04:28:01;-0.20;99.90
11043;DHT22;5574;48.786;10.120;2023-02-26T04:30:28;-0.20;99.90
11043;DHT22;5574;48.786;10.120;2023-02-26T04:32:55;-0.10;99.90
11043;DHT22;5574;48.786;10.120;2023-02-26T04:35:21;-0.10;99.90
11043;DHT22;5574;48.786;10.120;2023-02-26T04:37:48;-0.10;99.90
11043;DHT22;5574;48.786;10.120;2023-02-26T04:40:16;-0.20;99.90
11043;DHT22;5574;48.786;10.120;2023-02-26T04:42:43;-0.30;99.90
11043;DHT22;5574;48.786;10.120;2023-02-26T04:45:10;-0.20;99.90
11043;DHT22;5574;48.786;10.120;2023-02-26T04:47:36;-0.20;99.90
11043;DHT22;5574;48.786;10.120;2023-02-26T04:50:03;-0.20;99.90
11043;DHT22;5574;48.786;10.120;2023-02-26T04:52:30;-0.20;99.90
11043;DHT22;5574;48.786;10.120;2023-02-26T04:54:58;-0.20;99.90
11043;DHT22;5574;48.786;10.120;2023-02-26T04:57:26;-0.30;99.90
11043;DHT22;5574;48.786;10.120;2023-02-26T04:59:53;-0.40;99.90
11043;DHT22;5574;48.786;10.120;2023-02-26T05:02:19;-0.50;99.90
11043;DHT22;5574;48.786;10.120;2023-02-26T05:04:46;-0.60;99.90
11043;DHT22;5574;48.786;10.120;2023-02-26T05:07:13;-0.70;99.90
11043;DHT22;5574;48.786;10.120;2023-02-26T05:09:39;-0.70;99.90
11043;DHT22;5574;48.786;10.120;2023-02-26T05:12:06;-0.60;99.90
11043;DHT22;5574;48.786;10.120;2023-02-26T05:14:34;-0.70;99.90
11043;DHT22;5574;48.786;10.120;2023-02-26T05:17:01;-0.70;99.90
11043;DHT22;5574;48.786;10.120;2023-02-26T05:19:27;-0.70;99.90
11043;DHT22;5574;48.786;10.120;2023-02-26T05:21:54;-0.70;99.90
11043;DHT22;5574;48.786;10.120;2023-02-26T05:24:21;-0.70;99.90
11043;DHT22;5574;48.786;10.120;2023-02-26T05:26:48;-0.60;99.90
11043;DHT22;5574;48.786;10.120;2023-02-26T05:29:14;-0.60;99.90
11043;DHT22;5574;48.786;10.120;2023-02-26T05:31:42;-0.60;99.90
11043;DHT22;5574;48.786;10.120;2023-02-26T05:34:09;-0.60;99.90
11043;DHT22;5574;48.786;10.120;2023-02-26T05:36:36;-0.50;99.90
11043;DHT22;5574;48.786;10.120;2023-02-26T05:39:02;-0.50;99.90
11043;DHT22;5574;48.786;10.120;2023-02-26T05:41:29;-0.50;99.90
11043;DHT22;5574;48.786;10.120;2023-02-26T05:43:56;-0.40;99.90
11043;DHT22;5574;48.786;10.120;2023-02-26T05:46:23;-0.40;99.90
11043;DHT22;5574;48.786;10.120;2023-02-26T05:48:51;-0.40;99.90
11043;DHT22;5574;48.786;10.120;2023-02-26T05:51:18;-0.50;99.90
11043;DHT22;5574;48.786;10.120;2023-02-26T05:53:45;-0.60;99.90
11043;DHT22;5574;48.786;10.120;2023-02-26T05:56:11;-0.50;99.90
11043;DHT22;5574;48.786;10.120;2023-02-26T05:58:38;-0.50;99.90
11043;DHT22;5574;48.786;10.120;2023-02-26T06:01:05;-0.50;99.90
11043;DHT22;5574;48.786;10.120;2023-02-26T06:03:32;-0.40;99.90
11043;DHT22;5574;48.786;10.120;2023-02-26T06:06:00;-0.40;99.90
11043;DHT22;5574;48.786;10.120;2023-02-26T06:08:26;-0.30;99.90
11043;DHT22;5574;48.786;10.120;2023-02-26T06:10:53;-0.30;99.90
11043;DHT22;5574;48.786;10.120;2023-02-26T06:13:20;-0.30;99.90
11043;DHT22;5574;48.786;10.120;2023-02-26T06:15:48;-0.30;99.90
11043;DHT22;5574;48.786;10.120;2023-02-26T06:18:16;-0.40;99.90
11043;DHT22;5574;48.786;10.120;2023-02-26T06:20:43;-0.50;99.90
11043;DHT22;5574;48.786;10.120;2023-02-26T06:23:11;-0.50;99.90
11043;DHT22;5574;48.786;10.120;2023-02-26T06:25:39;-0.50;99.90
11043;DHT22;5574;48.786;10.120;2023-02-26T06:28:06;-0.50;99.90
11043;DHT22;5574;48.786;10.120;2023-02-26T06:30:32;-0.50;99.90
11043;DHT22;5574;48.786;10.120;2023-02-26T06:32:59;-0.50;99.90
11043;DHT22;5574;48.786;10.120;2023-02-26T06:35:26;-0.50;99.90
11043;DHT22;5574;48.786;10.120;2023-02-26T06:37:54;-0.40;99.90
11043;DHT22;5574;48.786;10.120;2023-02-26T06:40:22;-0.40;99.90
11043;DHT22;5574;48.786;10.120;2023-02-26T06:42:49;-0.40;99.90
11043;DHT22;5574;48.786;10.120;2023-02-26T06:45:16;-0.50;99.90
11043;DHT22;5574;48.786;10.120;2023-02-26T06:47:42;-0.50;99.90
11043;DHT22;5574;48.786;10.120;2023-02-26T06:50:10;-0.40;99.90
11043;DHT22;5574;48.786;10.120;2023-02-26T06:52:37;-0.50;99.90
11043;DHT22;5574;48.786;10.120;2023-02-26T06:55:05;-0.40;99.90
11043;DHT22;5574;48.786;10.120;2023-02-26T06:57:33;-0.50;99.90
11043;DHT22;5574;48.786;10.120;2023-02-26T06:59:59;-0.40;99.90
11043;DHT22;5574;48.786;10.120;2023-02-26T07:02:26;-0.40;99.90
11043;DHT22;5574;48.786;10.120;2023-02-26T07:04:53;-0.50;99.90
11043;DHT22;5574;48.786;10.120;2023-02-26T07:07:20;-0.50;99.90
11043;DHT22;5574;48.786;10.120;2023-02-26T07:09:46;-0.50;99.90
11043;DHT22;5574;48.786;10.120;2023-02-26T07:12:13;-0.50;99.90
11043;DHT22;5574;48.786;10.120;2023-02-26T07:14:41;-0.60;99.90
11043;DHT22;5574;48.786;10.120;2023-02-26T07:17:10;-0.50;99.90
11043;DHT22;5574;48.786;10.120;2023-02-26T07:19:44;-0.50;99.90
11043;DHT22;5574;48.786;10.120;2023-02-26T07:22:11;-0.60;99.90
11043;DHT22;5574;48.786;10.120;2023-02-26T07:24:38;-0.50;99.90
11043;DHT22;5574;48.786;10.120;2023-02-26T07:27:05;-0.60;99.90
11043;DHT22;5574;48.786;10.120;2023-02-26T07:29:31;-0.70;99.90
11043;DHT22;5574;48.786;10.120;2023-02-26T07:31:59;-0.70;99.90
11043;DHT22;5574;48.786;10.120;2023-02-26T07:34:26;-0.60;99.90
11043;DHT22;5574;48.786;10.120;2023-02-26T07:36:53;-0.60;99.90
11043;DHT22;5574;48.786;10.120;2023-02-26T07:39:20;-0.60;99.90
11043;DHT22;5574;48.786;10.120;2023-02-26T07:41:46;-0.50;99.90
11043;DHT22;5574;48.786;10.120;2023-02-26T07:44:13;-0.50;99.90
11043;DHT22;5574;48.786;10.120;2023-02-26T07:46:40;-0.60;99.90
11043;DHT22;5574;48.786;10.120;2023-02-26T07:49:08;-0.60;99.90
11043;DHT22;5574;48.786;10.120;2023-02-26T07:51:35;-0.60;99.90
11043;DHT22;5574;48.786;10.120;2023-02-26T07:54:02;-0.50;99.90
11043;DHT22;5574;48.786;10.120;2023-02-26T07:56:29;-0.40;99.90
11043;DHT22;5574;48.786;10.120;2023-02-26T07:58:56;-0.40;99.90
11043;DHT22;5574;48.786;10.120;2023-02-26T08:01:23;-0.40;99.90
11043;DHT22;5574;48.786;10.120;2023-02-26T08:03:49;-0.40;99.90
11043;DHT22;5574;48.786;10.120;2023-02-26T08:06:17;-0.40;99.90
11043;DHT22;5574;48.786;10.120;2023-02-26T08:08:44;-0.50;99.90
11043;DHT22;5574;48.786;10.120;2023-02-26T08:11:11;-0.50;99.90
11043;DHT22;5574;48.786;10.120;2023-02-26T08:13:37;-0.40;99.90
11043;DHT22;5574;48.786;10.120;2023-02-26T08:16:04;-0.40;99.90
11043;DHT22;5574;48.786;10.120;2023-02-26T08:18:31;-0.40;99.90
11043;DHT22;5574;48.786;10.120;2023-02-26T08:20:58;-0.40;99.90
11043;DHT22;5574;48.786;10.120;2023-02-26T08:23:26;-0.30;99.90
11043;DHT22;5574;48.786;10.120;2023-02-26T08:25:59;-0.30;99.90
11043;DHT22;5574;48.786;10.120;2023-02-26T08:28:25;-0.10;99.90
11043;DHT22;5574;48.786;10.120;2023-02-26T08:30:52;0.00;99.90
11043;DHT22;5574;48.786;10.120;2023-02-26T08:33:20;0.00;99.90
11043;DHT22;5574;48.786;10.120;2023-02-26T08:35:47;0.10;99.90
11043;DHT22;5574;48.786;10.120;2023-02-26T08:38:14;0.00;99.90
11043;DHT22;5574;48.786;10.120;2023-02-26T08:40:42;0.10;99.90
11043;DHT22;5574;48.786;10.120;2023-02-26T08:43:09;0.30;99.90
11043;DHT22;5574;48.786;10.120;2023-02-26T08:45:37;0.30;99.90
11043;DHT22;5574;48.786;10.120;2023-02-26T08:48:03;0.40;99.90
11043;DHT22;5574;48.786;10.120;2023-02-26T08:50:30;0.40;99.90
11043;DHT22;5574;48.786;10.120;2023-02-26T08:52:57;0.30;99.90
11043;DHT22;5574;48.786;10.120;2023-02-26T08:55:24;0.20;99.90
11043;DHT22;5574;48.786;10.120;2023-02-26T08:57:52;0.20;99.90
11043;DHT22;5574;48.786;10.120;2023-02-26T09:00:19;0.10;99.90
11043;DHT22;5574;48.786;10.120;2023-02-26T09:02:46;0.00;99.90
11043;DHT22;5574;48.786;10.120;2023-02-26T09:05:14;-0.10;99.90
11043;DHT22;5574;48.786;10.120;2023-02-26T09:07:41;-0.10;99.90
11043;DHT22;5574;48.786;10.120;2023-02-26T09:10:09;-0.10;99.90
11043;DHT22;5574;48.786;10.120;2023-02-26T09:12:36;-0.10;99.90
11043;DHT22;5574;48.786;10.120;2023-02-26T09:15:06;-0.10;99.90
11043;DHT22;5574;48.786;10.120;2023-02-26T09:17:33;-0.20;99.90
11043;DHT22;5574;48.786;10.120;2023-02-26T09:20:00;-0.10;99.90
11043;DHT22;5574;48.786;10.120;2023-02-26T09:22:27;-0.20;99.90
11043;DHT22;5574;48.786;10.120;2023-02-26T09:24:53;-0.10;99.90
11043;DHT22;5574;48.786;10.120;2023-02-26T09:27:20;-0.20;99.90
11043;DHT22;5574;48.786;10.120;2023-02-26T09:29:47;-0.10;99.90
11043;DHT22;5574;48.786;10.120;2023-02-26T09:32:15;-0.10;99.90
11043;DHT22;5574;48.786;10.120;2023-02-26T09:34:42;-0.10;99.90
11043;DHT22;5574;48.786;10.120;2023-02-26T09:37:09;-0.10;99.90
11043;DHT22;5574;48.786;10.120;2023-02-26T09:39:35;0.00;99.90
11043;DHT22;5574;48.786;10.120;2023-02-26T09:42:10;0.00;99.90
11043;DHT22;5574;48.786;10.120;2023-02-26T09:44:42;0.00;99.90
11043;DHT22;5574;48.786;10.120;2023-02-26T09:47:15;0.00;99.90
11043;DHT22;5574;48.786;10.120;2023-02-26T09:49:49;0.10;99.90
11043;DHT22;5574;48.786;10.120;2023-02-26T09:52:23;0.20;99.90
11043;DHT22;5574;48.786;10.120;2023-02-26T09:54:53;0.10;99.90
11043;DHT22;5574;48.786;10.120;2023-02-26T09:57:28;0.20;99.90
11043;DHT22;5574;48.786;10.120;2023-02-26T09:59:56;0.10;99.90
11043;DHT22;5574;48.786;10.120;2023-02-26T10:02:33;0.30;99.90
11043;DHT22;5574;48.786;10.120;2023-02-26T10:05:13;0.20;99.90
11043;DHT22;5574;48.786;10.120;2023-02-26T10:07:45;0.30;99.90
11043;DHT22;5574;48.786;10.120;2023-02-26T10:10:18;0.20;99.90
11043;DHT22;5574;48.786;10.120;2023-02-26T10:12:49;0.30;99.90
11043;DHT22;5574;48.786;10.120;2023-02-26T10:15:20;0.40;99.90
11043;DHT22;5574;48.786;10.120;2023-02-26T10:18:09;0.30;99.90
11043;DHT22;5574;48.786;10.120;2023-02-26T10:20:41;0.50;99.90
11043;DHT22;5574;48.786;10.120;2023-02-26T10:23:17;0.60;99.90
11043;DHT22;5574;48.786;10.120;2023-02-26T10:25:48;0.60;99.90
11043;DHT22;5574;48.786;10.120;2023-02-26T10:28:36;0.60;99.90
11043;DHT22;5574;48.786;10.120;2023-02-26T10:31:08;0.70;99.90
11043;DHT22;5574;48.786;10.120;2023-02-26T10:33:45;0.70;99.90
11043;DHT22;5574;48.786;10.120;2023-02-26T10:36:18;0.80;99.90
11043;DHT22;5574;48.786;10.120;2023-02-26T10:38:48;0.80;99.90
11043;DHT22;5574;48.786;10.120;2023-02-26T10:41:19;0.90;99.90
11043;DHT22;5574;48.786;10.120;2023-02-26T10:43:49;1.00;99.90
11043;DHT22;5574;48.786;10.120;2023-02-26T10:46:22;1.10;99.90
11043;DHT22;5574;48.786;10.120;2023-02-26T10:49:08;1.20;99.90
11043;DHT22;5574;48.786;10.120;2023-02-26T10:51:40;1.20;99.90
11043;DHT22;5574;48.786;10.120;2023-02-26T10:54:14;1.30;99.90
11043;DHT22;5574;48.786;10.120;2023-02-26T10:56:41;1.20;99.90
11043;DHT22;5574;48.786;10.120;2023-02-26T10:59:08;1.20;99.90
11043;DHT22;5574;48.786;10.120;2023-02-26T11:01:35;1.10;99.90
11043;DHT22;5574;48.786;10.120;2023-02-26T11:04:06;1.10;99.90
11043;DHT22;5574;48.786;10.120;2023-02-26T11:06:36;1.10;99.90
11043;DHT22;5574;48.786;10.120;2023-02-26T11:09:06;1.00;99.90
11043;DHT22;5574;48.786;10.120;2023-02-26T11:11:44;1.00;99.90
11043;DHT22;5574;48.786;10.120;2023-02-26T11:14:11;1.10;99.90
11043;DHT22;5574;48.786;10.120;2023-02-26T11:16:46;1.10;99.90
11043;DHT22;5574;48.786;10.120;2023-02-26T11:19:15;1.20;99.90
11043;DHT22;5574;48.786;10.120;2023-02-26T11:21:45;1.40;99.90
11043;DHT22;5574;48.786;10.120;2023-02-26T11:24:15;1.30;99.90
11043;DHT22;5574;48.786;10.120;2023-02-26T11:26:45;1.30;99.90
11043;DHT22;5574;48.786;10.120;2023-02-26T11:29:14;1.30;99.90
11043;DHT22;5574;48.786;10.120;2023-02-26T11:31:44;1.40;99.90
11043;DHT22;5574;48.786;10.120;2023-02-26T11:34:14;1.40;99.90
11043;DHT22;5574;48.786;10.120;2023-02-26T11:36:43;1.40;99.90
11043;DHT22;5574;48.786;10.120;2023-02-26T11:39:14;1.40;99.90
11043;DHT22;5574;48.786;10.120;2023-02-26T11:41:44;1.50;99.90
11043;DHT22;5574;48.786;10.120;2023-02-26T11:44:13;1.50;99.90
11043;DHT22;5574;48.786;10.120;2023-02-26T11:46:45;1.50;99.90
11043;DHT22;5574;48.786;10.120;2023-02-26T11:49:17;1.50;99.90
11043;DHT22;5574;48.786;10.120;2023-02-26T11:51:47;1.40;99.90
11043;DHT22;5574;48.786;10.120;2023-02-26T11:54:21;1.50;99.90
11043;DHT22;5574;48.786;10.120;2023-02-26T11:56:47;1.50;99.90
11043;DHT22;5574;48.786;10.120;2023-02-26T11:59:17;1.50;99.90
11043;DHT22;5574;48.786;10.120;2023-02-26T12:01:46;1.50;99.90
11043;DHT22;5574;48.786;10.120;2023-02-26T12:04:19;1.50;99.90
11043;DHT22;5574;48.786;10.120;2023-02-26T12:06:48;1.50;99.90
11043;DHT22;5574;48.786;10.120;2023-02-26T12:09:15;1.50;99.90
11043;DHT22;5574;48.786;10.120;2023-02-26T12:12:06;1.30;99.90
11043;DHT22;5574;48.786;10.120;2023-02-26T12:15:02;1.30;99.90
11043;DHT22;5574;48.786;10.120;2023-02-26T12:17:38;1.20;99.90
11043;DHT22;5574;48.786;10.120;2023-02-26T12:20:19;1.20;99.90
11043;DHT22;5574;48.786;10.120;2023-02-26T12:22:55;1.10;99.90
11043;DHT22;5574;48.786;10.120;2023-02-26T12:25:58;1.10;99.90
11043;DHT22;5574;48.786;10.120;2023-02-26T12:28:47;1.00;99.90
11043;DHT22;5574;48.786;10.120;2023-02-26T12:31:28;1.00;99.90
11043;DHT22;5574;48.786;10.120;2023-02-26T12:34:11;1.00;99.90
11043;DHT22;5574;48.786;10.120;2023-02-26T12:36:51;1.10;99.90
11043;DHT22;5574;48.786;10.120;2023-02-26T12:39:31;1.20;99.90
11043;DHT22;5574;48.786;10.120;2023-02-26T12:42:12;1.20;99.90
11043;DHT22;5574;48.786;10.120;2023-02-26T12:44:54;1.20;99.90
11043;DHT22;5574;48.786;10.120;2023-02-26T12:47:33;1.20;99.90
11043;DHT22;5574;48.786;10.120;2023-02-26T12:50:16;1.20;99.90
11043;DHT22;5574;48.786;10.120;2023-02-26T12:53:21;1.20;99.90
11043;DHT22;5574;48.786;10.120;2023-02-26T12:56:03;1.20;99.90
11043;DHT22;5574;48.786;10.120;2023-02-26T12:58:52;1.30;99.90
11043;DHT22;5574;48.786;10.120;2023-02-26T13:01:41;1.40;99.90
11043;DHT22;5574;48.786;10.120;2023-02-26T13:10:21;1.60;99.90
11043;DHT22;5574;48.786;10.120;2023-02-26T13:13:01;1.80;99.90
11043;DHT22;5574;48.786;10.120;2023-02-26T13:15:45;1.90;99.90
11043;DHT22;5574;48.786;10.120;2023-02-26T13:18:20;2.10;99.90
11043;DHT22;5574;48.786;10.120;2023-02-26T13:20:53;2.10;99.90
11043;DHT22;5574;48.786;10.120;2023-02-26T13:23:24;2.30;99.90
11043;DHT22;5574;48.786;10.120;2023-02-26T13:25:58;2.10;99.90
11043;DHT22;5574;48.786;10.120;2023-02-26T13:28:35;2.10;99.90
11043;DHT22;5574;48.786;10.120;2023-02-26T13:31:08;2.00;99.90
11043;DHT22;5574;48.786;10.120;2023-02-26T13:33:36;2.00;99.90
11043;DHT22;5574;48.786;10.120;2023-02-26T13:36:06;1.90;99.90
11043;DHT22;5574;48.786;10.120;2023-02-26T13:38:41;2.00;99.90
11043;DHT22;5574;48.786;10.120;2023-02-26T13:41:15;1.90;99.90
11043;DHT22;5574;48.786;10.120;2023-02-26T13:43:52;2.00;99.90
11043;DHT22;5574;48.786;10.120;2023-02-26T13:46:30;2.20;99.90
11043;DHT22;5574;48.786;10.120;2023-02-26T13:49:02;2.40;99.90
11043;DHT22;5574;48.786;10.120;2023-02-26T13:51:34;2.80;99.90
11043;DHT22;5574;48.786;10.120;2023-02-26T13:54:07;2.80;99.90
11043;DHT22;5574;48.786;10.120;2023-02-26T13:56:51;2.60;99.90
11043;DHT22;5574;48.786;10.120;2023-02-26T13:59:34;2.40;99.90
11043;DHT22;5574;48.786;10.120;2023-02-26T14:04:50;2.10;99.90
11043;DHT22;5574;48.786;10.120;2023-02-26T14:07:44;2.00;99.90
11043;DHT22;5574;48.786;10.120;2023-02-26T14:10:15;1.80;99.90
11043;DHT22;5574;48.786;10.120;2023-02-26T14:12:43;1.90;99.90
11043;DHT22;5574;48.786;10.120;2023-02-26T14:15:19;1.80;99.90
11043;DHT22;5574;48.786;10.120;2023-02-26T14:17:59;1.80;99.90
11043;DHT22;5574;48.786;10.120;2023-02-26T14:20:27;1.80;99.90
11043;DHT22;5574;48.786;10.120;2023-02-26T14:23:17;1.70;99.90
11043;DHT22;5574;48.786;10.120;2023-02-26T14:25:49;1.70;99.90
11043;DHT22;5574;48.786;10.120;2023-02-26T14:28:32;1.80;99.90
11043;DHT22;5574;48.786;10.120;2023-02-26T14:31:18;1.80;99.90
11043;DHT22;5574;48.786;10.120;2023-02-26T14:33:58;1.80;99.90
11043;DHT22;5574;48.786;10.120;2023-02-26T14:36:32;1.60;99.90
11043;DHT22;5574;48.786;10.120;2023-02-26T14:39:02;1.70;99.90
11043;DHT22;5574;48.786;10.120;2023-02-26T14:41:32;1.60;99.90
11043;DHT22;5574;48.786;10.120;2023-02-26T14:44:09;1.60;99.90
11043;DHT22;5574;48.786;10.120;2023-02-26T14:46:37;1.60;99.90
11043;DHT22;5574;48.786;10.120;2023-02-26T14:49:08;1.60;99.90
11043;DHT22;5574;48.786;10.120;2023-02-26T14:51:45;1.50;99.90
11043;DHT22;5574;48.786;10.120;2023-02-26T14:54:42;1.50;99.90
11043;DHT22;5574;48.786;10.120;2023-02-26T14:57:19;1.50;99.90
11043;DHT22;5574;48.786;10.120;2023-02-26T15:00:06;1.40;99.90
11043;DHT22;5574;48.786;10.120;2023-02-26T15:02:50;1.40;99.90
11043;DHT22;5574;48.786;10.120;2023-02-26T15:05:31;1.40;99.90
11043;DHT22;5574;48.786;10.120;2023-02-26T15:08:19;1.30;99.90
11043;DHT22;5574;48.786;10.120;2023-02-26T15:11:08;1.30;99.90
11043;DHT22;5574;48.786;10.120;2023-02-26T15:16:38;1.20;99.90
11043;DHT22;5574;48.786;10.120;2023-02-26T15:19:17;1.20;99.90
11043;DHT22;5574;48.786;10.120;2023-02-26T15:21:56;1.10;99.90
11043;DHT22;5574;48.786;10.120;2023-02-26T15:24:25;1.20;99.90
11043;DHT22;5574;48.786;10.120;2023-02-26T15:27:06;1.20;99.90
11043;DHT22;5574;48.786;10.120;2023-02-26T15:29:36;1.30;99.90
11043;DHT22;5574;48.786;10.120;2023-02-26T15:32:16;1.30;99.90
11043;DHT22;5574;48.786;10.120;2023-02-26T15:34:47;1.30;99.90
11043;DHT22;5574;48.786;10.120;2023-02-26T15:37:20;1.20;99.90
11043;DHT22;5574;48.786;10.120;2023-02-26T15:39:48;1.20;99.90
11043;DHT22;5574;48.786;10.120;2023-02-26T15:42:15;1.20;99.90
11043;DHT22;5574;48.786;10.120;2023-02-26T15:44:43;1.10;99.90
11043;DHT22;5574;48.786;10.120;2023-02-26T15:47:14;1.10;99.90
11043;DHT22;5574;48.786;10.120;2023-02-26T15:49:44;1.10;99.90
11043;DHT22;5574;48.786;10.120;2023-02-26T15:52:15;1.10;99.90
11043;DHT22;5574;48.786;10.120;2023-02-26T15:54:46;1.00;99.90
11043;DHT22;5574;48.786;10.120;2023-02-26T15:57:17;1.10;99.90
11043;DHT22;5574;48.786;10.120;2023-02-26T15:59:47;1.10;99.90
11043;DHT22;5574;48.786;10.120;2023-02-26T16:02:19;1.10;99.90
11043;DHT22;5574;48.786;10.120;2023-02-26T16:04:46;1.10;99.90
11043;DHT22;5574;48.786;10.120;2023-02-26T16:07:12;1.10;99.90
11043;DHT22;5574;48.786;10.120;2023-02-26T16:09:43;1.10;99.90
11043;DHT22;5574;48.786;10.120;2023-02-26T16:12:12;1.10;99.90
11043;DHT22;5574;48.786;10.120;2023-02-26T16:14:43;1.10;99.90
11043;DHT22;5574;48.786;10.120;2023-02-26T16:17:17;1.10;99.90
11043;DHT22;5574;48.786;10.120;2023-02-26T16:19:47;1.10;99.90